sensor_id;sensor_type;location;lat;lon;timestamp;P1;durP1;ratioP1;P2;durP2;ratioP2
85087;SDS011;75429;48.374;11.934;2024-02-04T20:52:20;35.13;;;26.58;;
85087;SDS011;75429;48.374;11.934;2024-02-04T20:54:20;28.77;;;22.10;;
85087;SDS011;75429;48.374;11.934;2024-02-04T20:56:21;111.22;;;45.80;;
85087;SDS011;75429;48.374;11.934;2024-02-04T20:58:22;103.50;;;48.38;;
85087;SDS011;75429;48.374;11.934;2024-02-04T21:00:22;3.65;;;2.17;;
85087;SDS011;75429;48.374;11.934;2024-02-04T21:02:22;2.47;;;1.50;;
85087;SDS011;75429;48.374;11.934;2024-02-04T21:04:23;2.28;;;1.80;;
85087;SDS011;75429;48.374;11.934;2024-02-04T21:06:23;15.00;;;8.70;;
85087;SDS011;75429;48.374;11.934;2024-02-04T21:08:31;9.68;;;4.45;;
85087;SDS011;75429;48.374;11.934;2024-02-04T21:10:32;4.55;;;1.70;;
85087;SDS011;75429;48.374;11.934;2024-02-04T21:12:32;2.22;;;1.60;;
85087;SDS011;75429;48.374;11.934;2024-02-04T21:14:33;3.75;;;1.55;;
85087;SDS011;75429;48.374;11.934;2024-02-04T21:16:33;2.78;;;1.40;;
85087;SDS011;75429;48.374;11.934;2024-02-04T21:18:34;2.83;;;1.20;;
85087;SDS011;75429;48.374;11.934;2024-02-04T21:20:34;2.53;;;1.50;;
85087;SDS011;75429;48.374;11.934;2024-02-04T21:22:36;6.28;;;1.95;;
85087;SDS011;75429;48.374;11.934;2024-02-04T21:24:37;2.33;;;1.67;;
85087;SDS011;75429;48.374;11.934;2024-02-04T21:26:37;2.47;;;1.40;;
85087;SDS011;75429;48.374;11.934;2024-02-04T21:28:37;3.22;;;1.48;;
85087;SDS011;75429;48.374;11.934;2024-02-04T21:30:39;4.05;;;1.40;;
85087;SDS011;75429;48.374;11.934;2024-02-04T21:32:43;4.30;;;1.73;;
85087;SDS011;75429;48.374;11.934;2024-02-04T21:34:48;2.97;;;1.45;;
85087;SDS011;75429;48.374;11.934;2024-02-04T21:36:49;1.88;;;1.35;;
85087;SDS011;75429;48.374;11.934;2024-02-04T21:38:49;2.58;;;1.65;;
85087;SDS011;75429;48.374;11.934;2024-02-04T21:40:50;4.43;;;1.77;;
85087;SDS011;75429;48.374;11.934;2024-02-04T21:42:50;2.50;;;1.75;;
85087;SDS011;75429;48.374;11.934;2024-02-04T21:44:50;4.93;;;1.60;;
85087;SDS011;75429;48.374;11.934;2024-02-04T21:46:54;4.43;;;2.22;;
85087;SDS011;75429;48.374;11.934;2024-02-04T21:48:55;4.25;;;1.42;;
85087;SDS011;75429;48.374;11.934;2024-02-04T21:50:55;2.72;;;1.90;;
85087;SDS011;75429;48.374;11.934;2024-02-04T21:52:55;3.22;;;1.40;;
85087;SDS011;75429;48.374;11.934;2024-02-04T21:54:57;3.45;;;1.65;;
85087;SDS011;75429;48.374;11.934;2024-02-04T21:56:58;2.08;;;1.88;;
85087;SDS011;75429;48.374;11.934;2024-02-04T21:58:59;5.95;;;1.60;;
85087;SDS011;75429;48.374;11.934;2024-02-04T22:00:59;1.65;;;1.50;;
85087;SDS011;75429;48.374;11.934;2024-02-04T22:03:00;2.00;;;1.20;;
85087;SDS011;75429;48.374;11.934;2024-02-04T22:05:01;2.15;;;1.50;;
85087;SDS011;75429;48.374;11.934;2024-02-04T22:07:01;3.33;;;1.75;;
85087;SDS011;75429;48.374;11.934;2024-02-04T22:09:01;3.85;;;2.10;;
85087;SDS011;75429;48.374;11.934;2024-02-04T22:11:02;9.80;;;4.43;;
85087;SDS011;75429;48.374;11.934;2024-02-04T22:13:03;14.00;;;5.18;;
85087;SDS011;75429;48.374;11.934;2024-02-04T22:15:04;9.88;;;5.15;;
85087;SDS011;75429;48.374;11.934;2024-02-04T22:17:08;19.48;;;8.30;;
85087;SDS011;75429;48.374;11.934;2024-02-04T22:19:08;8.77;;;4.05;;
85087;SDS011;75429;48.374;11.934;2024-02-04T22:21:09;11.80;;;4.53;;
85087;SDS011;75429;48.374;11.934;2024-02-04T22:23:12;6.47;;;2.25;;
85087;SDS011;75429;48.374;11.934;2024-02-04T22:25:21;3.75;;;1.83;;
85087;SDS011;75429;48.374;11.934;2024-02-04T22:27:29;2.25;;;1.30;;
85087;SDS011;75429;48.374;11.934;2024-02-04T22:29:29;4.10;;;2.03;;
85087;SDS011;75429;48.374;11.934;2024-02-04T22:31:30;3.67;;;1.50;;
85087;SDS011;75429;48.374;11.934;2024-02-04T22:33:31;3.35;;;1.60;;
85087;SDS011;75429;48.374;11.934;2024-02-04T22:35:32;4.43;;;1.50;;
85087;SDS011;75429;48.374;11.934;2024-02-04T22:37:32;1.88;;;1.48;;
85087;SDS011;75429;48.374;11.934;2024-02-04T22:39:33;2.53;;;1.63;;
85087;SDS011;75429;48.374;11.934;2024-02-04T22:41:33;3.45;;;1.33;;
85087;SDS011;75429;48.374;11.934;2024-02-04T22:43:35;2.63;;;1.58;;
85087;SDS011;75429;48.374;11.934;2024-02-04T22:45:35;4.55;;;2.00;;
85087;SDS011;75429;48.374;11.934;2024-02-04T22:47:36;2.25;;;1.70;;
85087;SDS011;75429;48.374;11.934;2024-02-04T22:49:37;2.90;;;1.63;;
85087;SDS011;75429;48.374;11.934;2024-02-04T22:51:37;19.17;;;7.22;;
85087;SDS011;75429;48.374;11.934;2024-02-04T22:53:38;5.80;;;2.10;;
85087;SDS011;75429;48.374;11.934;2024-02-04T22:55:39;3.15;;;1.60;;
85087;SDS011;75429;48.374;11.934;2024-02-04T22:57:44;2.42;;;1.30;;
85087;SDS011;75429;48.374;11.934;2024-02-04T22:59:44;7.75;;;1.90;;
85087;SDS011;75429;48.374;11.934;2024-02-04T23:01:45;4.03;;;1.70;;
85087;SDS011;75429;48.374;11.934;2024-02-04T23:03:45;2.63;;;1.40;;
85087;SDS011;75429;48.374;11.934;2024-02-04T23:05:48;3.25;;;1.50;;
85087;SDS011;75429;48.374;11.934;2024-02-04T23:07:49;2.88;;;1.30;;
85087;SDS011;75429;48.374;11.934;2024-02-04T23:09:49;2.85;;;1.27;;
85087;SDS011;75429;48.374;11.934;2024-02-04T23:11:51;3.38;;;1.50;;
85087;SDS011;75429;48.374;11.934;2024-02-04T23:13:52;2.70;;;1.35;;
85087;SDS011;75429;48.374;11.934;2024-02-04T23:15:53;4.05;;;1.60;;
85087;SDS011;75429;48.374;11.934;2024-02-04T23:17:57;2.25;;;1.15;;
85087;SDS011;75429;48.374;11.934;2024-02-04T23:19:57;2.35;;;1.30;;
85087;SDS011;75429;48.374;11.934;2024-02-04T23:21:58;1.60;;;1.23;;
85087;SDS011;75429;48.374;11.934;2024-02-04T23:23:58;3.90;;;1.40;;
85087;SDS011;75429;48.374;11.934;2024-02-04T23:25:58;2.40;;;1.38;;
85087;SDS011;75429;48.374;11.934;2024-02-04T23:27:59;3.35;;;1.60;;
85087;SDS011;75429;48.374;11.934;2024-02-04T23:29:59;3.50;;;1.27;;
85087;SDS011;75429;48.374;11.934;2024-02-04T23:32:00;1.52;;;1.40;;
85087;SDS011;75429;48.374;11.934;2024-02-04T23:34:00;2.55;;;1.40;;
85087;SDS011;75429;48.374;11.934;2024-02-04T23:36:01;3.22;;;1.20;;
85087;SDS011;75429;48.374;11.934;2024-02-04T23:38:03;2.65;;;1.33;;
85087;SDS011;75429;48.374;11.934;2024-02-04T23:40:03;3.03;;;1.33;;
85087;SDS011;75429;48.374;11.934;2024-02-04T23:42:06;1.42;;;1.15;;
85087;SDS011;75429;48.374;11.934;2024-02-04T23:44:07;3.58;;;1.30;;
85087;SDS011;75429;48.374;11.934;2024-02-04T23:46:07;3.47;;;1.65;;
85087;SDS011;75429;48.374;11.934;2024-02-04T23:48:07;2.05;;;1.30;;
85087;SDS011;75429;48.374;11.934;2024-02-04T23:50:08;1.85;;;1.13;;
85087;SDS011;75429;48.374;11.934;2024-02-04T23:52:08;2.90;;;1.50;;
85087;SDS011;75429;48.374;11.934;2024-02-04T23:54:08;1.48;;;1.33;;
85087;SDS011;75429;48.374;11.934;2024-02-04T23:56:09;2.63;;;1.42;;
85087;SDS011;75429;48.374;11.934;2024-02-04T23:58:09;4.00;;;1.40;;
